createdAt,value
2023-02-11T00:02:17.834Z,5.22
2023-02-11T00:04:46.209Z,5.65
2023-02-11T00:07:14.494Z,5.25
2023-02-11T00:09:43.051Z,5.53
2023-02-11T00:12:11.348Z,5.22
2023-02-11T00:14:39.648Z,5.70
2023-02-11T00:17:07.908Z,5.00
2023-02-11T00:19:36.358Z,5.30
2023-02-11T00:22:04.627Z,5.00
2023-02-11T00:24:33.015Z,4.78
2023-02-11T00:27:01.316Z,4.67
2023-02-11T00:29:29.669Z,5.12
2023-02-11T00:31:58.871Z,5.03
2023-02-11T00:34:27.346Z,4.72
2023-02-11T00:36:55.723Z,4.60
2023-02-11T00:39:23.935Z,4.95
2023-02-11T00:41:52.256Z,4.55
2023-02-11T00:44:21.293Z,4.65
2023-02-11T00:46:49.537Z,4.97
2023-02-11T00:51:45.292Z,4.83
2023-02-11T00:54:13.534Z,4.50
2023-02-11T00:56:42.041Z,4.17
2023-02-11T00:59:10.344Z,4.25
2023-02-11T01:01:38.630Z,4.42
2023-02-11T01:04:07.041Z,4.45
2023-02-11T01:06:35.351Z,4.20
2023-02-11T01:09:03.647Z,4.20
2023-02-11T01:11:32.210Z,4.15
2023-02-11T01:14:00.487Z,4.53
2023-02-11T01:16:28.695Z,4.85
2023-02-11T01:18:57.148Z,4.50
2023-02-11T01:21:25.897Z,4.53
2023-02-11T01:23:54.119Z,3.83
2023-02-11T01:26:22.474Z,4.97
2023-02-11T01:28:50.756Z,4.40
2023-02-11T01:31:19.201Z,4.10
2023-02-11T01:33:47.624Z,3.95
2023-02-11T01:36:15.820Z,3.80
2023-02-11T01:41:14.619Z,3.98
2023-02-11T01:43:43.853Z,3.87
2023-02-11T01:46:19.918Z,3.90
2023-02-11T01:48:48.857Z,3.83
2023-02-11T01:51:21.757Z,3.98
2023-02-11T01:54:08.034Z,3.52
2023-02-11T01:56:55.865Z,3.90
2023-02-11T01:59:25.736Z,3.62
2023-02-11T02:01:55.771Z,3.33
2023-02-11T02:04:25.675Z,4.05
2023-02-11T02:06:55.544Z,3.60
2023-02-11T02:09:24.725Z,3.70
2023-02-11T02:11:52.945Z,3.52
2023-02-11T02:14:21.487Z,3.33
2023-02-11T02:16:49.763Z,3.83
2023-02-11T02:19:19.678Z,3.80
2023-02-11T02:21:49.794Z,4.03
2023-02-11T02:24:22.887Z,3.77
2023-02-11T02:27:01.736Z,3.98
2023-02-11T02:29:31.622Z,3.50
2023-02-11T02:32:13.535Z,3.35
2023-02-11T02:34:43.447Z,3.80
2023-02-11T02:37:13.355Z,3.60
2023-02-11T02:39:41.654Z,3.15
2023-02-11T02:42:09.953Z,3.50
2023-02-11T02:44:38.283Z,3.10
2023-02-11T02:47:06.856Z,3.90
2023-02-11T02:49:35.149Z,4.28
2023-02-11T02:52:08.734Z,3.37
2023-02-11T02:54:51.082Z,3.25
2023-02-11T02:57:37.963Z,3.52
2023-02-11T03:00:24.417Z,3.12
2023-02-11T03:05:38.431Z,3.70
2023-02-11T03:08:13.736Z,3.00
2023-02-11T03:10:43.689Z,3.10
2023-02-11T03:13:11.888Z,3.37
2023-02-11T03:18:07.803Z,3.17
2023-02-11T03:20:37.209Z,3.00
2023-02-11T03:23:07.117Z,3.02
2023-02-11T03:25:35.976Z,2.95
2023-02-11T03:28:05.927Z,3.33
2023-02-11T03:30:41.805Z,2.67
2023-02-11T03:33:11.998Z,3.33
2023-02-11T03:35:40.679Z,2.90
2023-02-11T03:38:13.465Z,3.10
2023-02-11T03:40:41.907Z,2.65
2023-02-11T03:43:20.158Z,3.15
2023-02-11T03:45:48.578Z,2.85
2023-02-11T03:48:18.753Z,2.95
2023-02-11T03:50:47.132Z,3.00
2023-02-11T03:53:15.406Z,3.45
2023-02-11T03:55:43.831Z,3.22
2023-02-11T03:58:12.070Z,3.05
2023-02-11T04:00:41.268Z,2.42
2023-02-11T04:03:09.761Z,2.85
2023-02-11T04:05:38.284Z,2.72
2023-02-11T04:08:06.628Z,3.02
2023-02-11T04:10:34.990Z,2.85
2023-02-11T04:13:03.260Z,2.77
2023-02-11T04:17:58.894Z,3.00
2023-02-11T04:20:27.335Z,2.65
2023-02-11T04:22:55.536Z,3.17
2023-02-11T04:27:51.238Z,2.67
2023-02-11T04:30:19.642Z,3.08
2023-02-11T04:32:47.930Z,2.70
2023-02-11T04:35:16.223Z,3.10
2023-02-11T04:37:44.697Z,2.67
2023-02-11T04:40:13.080Z,2.60
2023-02-11T04:42:41.314Z,2.77
2023-02-11T04:45:09.838Z,2.80
2023-02-11T04:47:38.214Z,2.62
2023-02-11T04:50:06.595Z,2.45
2023-02-11T04:52:34.846Z,2.47
2023-02-11T04:57:30.505Z,2.65
2023-02-11T04:59:58.780Z,2.50
2023-02-11T05:02:27.106Z,2.15
2023-02-11T05:04:55.345Z,2.85
2023-02-11T05:09:51.060Z,2.72
2023-02-11T05:12:19.349Z,2.50
2023-02-11T05:14:47.714Z,2.65
2023-02-11T05:17:16.099Z,2.52
2023-02-11T05:19:44.581Z,2.75
2023-02-11T05:22:12.928Z,2.80
2023-02-11T05:24:41.231Z,2.25
2023-02-11T05:27:09.482Z,2.70
2023-02-11T05:29:37.855Z,3.00
2023-02-11T05:32:07.226Z,2.55
2023-02-11T05:34:36.040Z,2.52
2023-02-11T05:37:04.356Z,2.47
2023-02-11T05:39:32.747Z,2.75
2023-02-11T05:42:01.019Z,2.67
2023-02-11T05:44:29.337Z,2.83
2023-02-11T05:46:57.580Z,2.77
2023-02-11T05:49:26.814Z,2.92
2023-02-11T05:51:55.073Z,2.60
2023-02-11T05:56:50.658Z,2.55
2023-02-11T05:59:18.948Z,2.62
2023-02-11T06:01:47.221Z,3.10
2023-02-11T06:04:15.411Z,3.30
2023-02-11T06:09:11.940Z,3.17
2023-02-11T06:11:40.107Z,2.85
2023-02-11T06:16:35.760Z,3.60
2023-02-11T06:19:04.149Z,3.00
2023-02-11T06:21:43.534Z,3.37
2023-02-11T06:24:02.467Z,4.30
2023-02-11T06:26:30.768Z,3.55
2023-02-11T06:29:02.157Z,3.60
2023-02-11T06:31:30.654Z,4.08
2023-02-11T06:33:59.337Z,4.10
2023-02-11T06:36:27.671Z,4.60
2023-02-11T06:38:56.031Z,4.40
2023-02-11T06:41:24.354Z,4.00
2023-02-11T06:43:53.048Z,4.05
2023-02-11T06:46:21.354Z,3.92
2023-02-11T06:48:49.604Z,4.00
2023-02-11T06:51:17.992Z,3.58
2023-02-11T06:53:46.570Z,4.33
2023-02-11T06:56:16.579Z,4.50
2023-02-11T06:58:44.780Z,3.52
2023-02-11T07:01:13.846Z,4.28
2023-02-11T07:03:43.090Z,3.85
2023-02-11T07:06:15.469Z,4.72
2023-02-11T07:08:45.368Z,4.65
2023-02-11T07:11:14.432Z,4.15
2023-02-11T07:13:42.817Z,5.03
2023-02-11T07:16:12.138Z,4.20
2023-02-11T07:18:40.480Z,5.10
2023-02-11T07:21:09.382Z,5.53
2023-02-11T07:23:37.575Z,4.92
2023-02-11T07:26:06.581Z,5.37
2023-02-11T07:28:35.018Z,5.03
2023-02-11T07:31:15.711Z,5.30
2023-02-11T07:33:45.785Z,5.72
2023-02-11T07:36:14.348Z,5.50
2023-02-11T07:38:42.617Z,5.65
2023-02-11T07:41:11.672Z,5.92
2023-02-11T07:43:39.922Z,6.00
2023-02-11T07:46:08.938Z,6.72
2023-02-11T07:48:37.213Z,6.70
2023-02-11T07:51:07.093Z,6.70
2023-02-11T07:53:35.365Z,7.37
2023-02-11T07:56:04.252Z,7.30
2023-02-11T07:58:32.763Z,6.95
2023-02-11T08:01:04.503Z,7.58
2023-02-11T08:03:32.930Z,8.03
2023-02-11T08:06:08.393Z,7.83
2023-02-11T08:08:36.901Z,8.55
2023-02-11T08:11:08.596Z,8.75
2023-02-11T08:13:36.831Z,8.93
2023-02-11T08:16:05.316Z,7.92
2023-02-11T08:18:33.934Z,8.60
2023-02-11T08:21:08.686Z,9.15
2023-02-11T08:23:38.077Z,8.88
2023-02-11T08:26:08.205Z,9.63
2023-02-11T08:28:37.345Z,9.48
2023-02-11T08:31:07.376Z,10.10
2023-02-11T08:33:35.688Z,9.50
2023-02-11T08:36:05.644Z,9.80
2023-02-11T08:38:33.995Z,9.95
2023-02-11T08:41:02.546Z,9.43
2023-02-11T08:43:30.775Z,9.08
2023-02-11T08:46:01.622Z,10.00
2023-02-11T08:48:29.130Z,9.25
2023-02-11T08:50:57.532Z,9.18
2023-02-11T08:53:25.729Z,9.38
2023-02-11T08:55:54.681Z,9.00
2023-02-11T08:58:23.025Z,9.73
2023-02-11T09:00:51.532Z,8.48
2023-02-11T09:03:20.064Z,9.13
2023-02-11T09:05:49.835Z,9.53
2023-02-11T09:08:18.401Z,9.80
2023-02-11T09:13:14.141Z,8.25
2023-02-11T09:15:44.059Z,8.98
2023-02-11T09:18:12.459Z,8.60
2023-02-11T09:20:40.705Z,9.35
2023-02-11T09:23:08.988Z,8.63
2023-02-11T09:25:38.939Z,9.50
2023-02-11T09:28:07.419Z,8.65
2023-02-11T09:30:37.172Z,8.58
2023-02-11T09:33:05.480Z,8.98
2023-02-11T09:35:34.774Z,8.93
2023-02-11T09:38:02.989Z,9.73
2023-02-11T09:40:31.434Z,8.30
2023-02-11T09:43:08.872Z,8.73
2023-02-11T09:45:37.111Z,8.80
2023-02-11T09:48:10.084Z,8.68
2023-02-11T09:50:39.946Z,8.35
2023-02-11T09:53:25.294Z,8.63
2023-02-11T09:55:59.521Z,8.10
2023-02-11T10:01:02.695Z,8.80
2023-02-11T10:03:33.598Z,7.92
2023-02-11T10:06:03.672Z,8.13
2023-02-11T10:08:38.342Z,8.30
2023-02-11T10:11:20.016Z,8.28
2023-02-11T10:13:48.867Z,7.50
2023-02-11T10:16:28.048Z,7.40
2023-02-11T10:19:02.616Z,7.72
2023-02-11T10:21:32.712Z,7.80
2023-02-11T10:24:01.532Z,7.83
2023-02-11T10:26:31.034Z,7.15
2023-02-11T10:29:00.387Z,8.38
2023-02-11T10:31:29.953Z,7.22
2023-02-11T10:33:59.957Z,7.83
2023-02-11T10:36:31.959Z,8.03
2023-02-11T10:39:01.936Z,7.40
2023-02-11T10:41:32.581Z,7.45
2023-02-11T10:44:01.768Z,8.00
2023-02-11T10:46:30.970Z,7.47
2023-02-11T10:48:59.550Z,7.90
2023-02-11T10:51:32.800Z,6.75
2023-02-11T10:54:13.319Z,7.17
2023-02-11T10:56:44.575Z,6.78
2023-02-11T10:59:19.761Z,6.87
2023-02-11T11:01:51.426Z,6.58
2023-02-11T11:04:34.530Z,6.60
2023-02-11T11:07:13.601Z,7.17
2023-02-11T11:09:49.351Z,6.30
2023-02-11T11:12:40.310Z,6.95
2023-02-11T11:15:21.802Z,6.75
2023-02-11T11:17:50.328Z,6.47
2023-02-11T11:20:27.449Z,5.95
2023-02-11T11:23:14.124Z,6.45
2023-02-11T11:25:43.723Z,6.28
2023-02-11T11:28:22.838Z,7.08
2023-02-11T11:30:51.619Z,6.17
2023-02-11T11:33:23.858Z,6.33
2023-02-11T11:35:59.685Z,6.05
2023-02-11T11:38:28.804Z,6.92
2023-02-11T11:41:16.300Z,6.33
2023-02-11T11:43:57.221Z,6.25
2023-02-11T11:46:30.092Z,6.17
2023-02-11T11:49:00.027Z,6.03
2023-02-11T11:51:28.341Z,5.75
2023-02-11T11:54:01.422Z,6.53
2023-02-11T11:56:30.927Z,6.30
2023-02-11T11:59:01.149Z,6.05
2023-02-11T12:01:31.299Z,6.12
2023-02-11T12:04:16.670Z,6.12
2023-02-11T12:06:52.608Z,6.28
2023-02-11T12:09:22.521Z,6.00
2023-02-11T12:12:01.645Z,5.87
2023-02-11T12:14:37.529Z,6.00
2023-02-11T12:17:10.395Z,5.87
2023-02-11T12:19:52.882Z,5.97
2023-02-11T12:22:40.886Z,5.53
2023-02-11T12:25:27.348Z,5.85
2023-02-11T12:28:03.057Z,5.10
2023-02-11T12:30:49.910Z,5.67
2023-02-11T12:33:23.077Z,5.55
2023-02-11T12:35:56.186Z,5.60
2023-02-11T12:38:28.713Z,5.70
2023-02-11T12:40:58.638Z,5.25
2023-02-11T12:43:28.518Z,5.33
2023-02-11T12:46:07.628Z,5.47
2023-02-11T12:48:37.748Z,5.17
2023-02-11T12:51:10.556Z,5.45
2023-02-11T12:53:57.262Z,5.67
2023-02-11T12:56:27.148Z,5.50
2023-02-11T12:58:56.351Z,5.28
2023-02-11T13:01:26.445Z,5.42
2023-02-11T13:04:02.358Z,5.65
2023-02-11T13:06:32.443Z,5.42
2023-02-11T13:09:01.753Z,4.75
2023-02-11T13:11:37.399Z,5.40
2023-02-11T13:14:07.251Z,5.33
2023-02-11T13:16:36.963Z,5.10
2023-02-11T13:19:07.046Z,5.28
2023-02-11T13:21:53.457Z,4.70
2023-02-11T13:27:02.577Z,4.67
2023-02-11T13:29:32.501Z,4.70
2023-02-11T13:32:10.920Z,5.08
2023-02-11T13:34:43.900Z,7.65
2023-02-11T14:02:23.773Z,9.77
2023-02-11T14:05:24.471Z,10.35
2023-02-11T14:08:27.762Z,10.25
2023-02-11T14:15:02.635Z,11.30
2023-02-11T14:17:31.638Z,14.38
2023-02-11T14:20:00.144Z,11.48
2023-02-11T14:22:29.800Z,11.68
2023-02-11T14:25:01.184Z,15.95
2023-02-11T14:27:30.612Z,12.35
2023-02-11T14:30:09.676Z,12.07
2023-02-11T14:32:45.693Z,21.10
2023-02-11T14:35:18.498Z,15.38
2023-02-11T14:37:50.658Z,9.88
2023-02-11T14:40:25.771Z,6.03
2023-02-11T14:42:54.101Z,15.60
2023-02-11T14:45:25.081Z,17.77
2023-02-11T14:47:57.875Z,17.50
2023-02-11T14:50:27.749Z,14.30
2023-02-11T14:52:56.008Z,13.93
2023-02-11T14:55:34.525Z,10.88
2023-02-11T14:58:07.520Z,11.33
2023-02-11T15:00:35.784Z,9.35
2023-02-11T15:03:04.102Z,16.90
2023-02-11T15:05:32.617Z,23.67
2023-02-11T15:08:01.814Z,17.67
2023-02-11T15:10:35.988Z,13.68
2023-02-11T15:13:04.253Z,18.20
2023-02-11T15:15:32.602Z,36.00
2023-02-11T15:18:01.644Z,37.03
2023-02-11T15:20:31.739Z,34.23
2023-02-11T15:23:01.239Z,32.95
2023-02-11T15:25:30.727Z,35.20
2023-02-11T15:27:59.457Z,29.77
2023-02-11T15:30:29.079Z,19.82
2023-02-11T15:32:59.991Z,22.75
2023-02-11T15:35:33.080Z,23.95
2023-02-11T15:38:01.363Z,22.50
2023-02-11T15:40:32.388Z,26.80
2023-02-11T15:43:02.697Z,20.15
2023-02-11T15:45:32.242Z,68.30
2023-02-11T15:48:02.094Z,36.45
2023-02-11T15:50:31.237Z,73.17
2023-02-11T15:53:01.072Z,26.40
2023-02-11T15:55:29.352Z,28.15
2023-02-11T15:57:58.673Z,30.15
2023-02-11T16:00:28.589Z,24.40
2023-02-11T16:02:56.859Z,22.85
2023-02-11T16:05:26.550Z,26.30
2023-02-11T16:07:55.665Z,30.82
2023-02-11T16:10:28.621Z,31.30
2023-02-11T16:12:58.534Z,36.17
2023-02-11T16:15:30.851Z,35.88
2023-02-11T16:17:59.143Z,40.48
2023-02-11T16:20:27.443Z,38.20
2023-02-11T16:22:55.856Z,43.73
2023-02-11T16:25:24.200Z,37.13
2023-02-11T16:27:52.802Z,32.03
2023-02-11T16:30:33.882Z,28.98
2023-02-11T16:33:02.855Z,24.67
2023-02-11T16:35:31.144Z,25.23
2023-02-11T16:37:59.408Z,23.67
2023-02-11T16:40:27.786Z,28.90
2023-02-11T16:42:56.155Z,28.50
2023-02-11T16:45:24.479Z,23.87
2023-02-11T16:47:52.741Z,33.85
2023-02-11T16:50:22.698Z,29.57
2023-02-11T16:52:52.463Z,17.00
2023-02-11T16:55:22.088Z,19.15
2023-02-11T16:57:50.704Z,19.02
2023-02-11T17:00:20.737Z,19.20
2023-02-11T17:02:49.006Z,23.92
2023-02-11T17:05:19.315Z,31.12
2023-02-11T17:07:47.680Z,16.30
2023-02-11T17:10:19.792Z,12.90
2023-02-11T17:12:48.232Z,15.23
2023-02-11T17:15:16.756Z,10.25
2023-02-11T17:17:45.975Z,10.38
2023-02-11T17:20:14.562Z,14.00
2023-02-11T17:22:42.835Z,14.93
2023-02-11T17:25:11.150Z,10.23
2023-02-11T17:27:39.514Z,11.63
2023-02-11T17:30:08.382Z,11.73
2023-02-11T17:32:36.892Z,15.05
2023-02-11T17:35:06.892Z,10.60
2023-02-11T17:37:35.264Z,17.00
2023-02-11T17:40:03.606Z,14.93
2023-02-11T17:42:32.861Z,18.17
2023-02-11T17:45:01.181Z,20.30
2023-02-11T17:47:30.392Z,16.17
2023-02-11T17:49:58.591Z,9.63
2023-02-11T17:52:28.220Z,15.65
2023-02-11T17:54:58.018Z,17.65
2023-02-11T17:57:26.394Z,18.42
2023-02-11T17:59:54.733Z,15.40
2023-02-11T18:02:23.052Z,18.05
2023-02-11T18:04:52.333Z,14.83
2023-02-11T18:07:20.849Z,15.08
2023-02-11T18:09:49.076Z,9.18
2023-02-11T18:12:19.088Z,14.18
2023-02-11T18:14:47.393Z,17.17
2023-02-11T18:17:15.756Z,13.38
2023-02-11T18:19:44.073Z,15.18
2023-02-11T18:22:12.607Z,15.63
2023-02-11T18:24:41.201Z,10.50
2023-02-11T18:27:09.518Z,14.50
2023-02-11T18:29:37.890Z,16.40
2023-02-11T18:32:06.243Z,27.77
2023-02-11T18:34:34.508Z,10.15
2023-02-11T18:37:02.816Z,6.87
2023-02-11T18:39:31.220Z,7.42
2023-02-11T18:41:59.765Z,9.48
2023-02-11T18:44:28.974Z,8.25
2023-02-11T18:46:57.272Z,7.70
2023-02-11T18:49:25.490Z,11.35
2023-02-11T18:51:53.917Z,10.88
2023-02-11T18:54:22.172Z,15.88
2023-02-11T18:56:50.526Z,16.35
2023-02-11T18:59:18.809Z,10.00
2023-02-11T19:01:48.231Z,7.17
2023-02-11T19:04:18.244Z,12.82
2023-02-11T19:06:47.554Z,11.85
2023-02-11T19:09:16.505Z,8.25
2023-02-11T19:11:47.745Z,10.32
2023-02-11T19:14:23.062Z,12.75
2023-02-11T19:16:53.339Z,7.83
2023-02-11T19:19:22.931Z,11.78
2023-02-11T19:21:51.207Z,8.00
2023-02-11T19:24:19.996Z,9.40
2023-02-11T19:26:48.696Z,16.62
2023-02-11T19:29:17.218Z,32.25
2023-02-11T19:31:45.740Z,11.48
2023-02-11T19:34:15.562Z,15.60
2023-02-11T19:36:43.884Z,29.55
2023-02-11T19:39:12.360Z,13.88
2023-02-11T19:41:41.007Z,12.20
2023-02-11T19:44:09.558Z,12.78
2023-02-11T19:46:38.538Z,16.42
2023-02-11T19:49:06.984Z,23.38
2023-02-11T19:51:36.982Z,12.10
2023-02-11T19:54:05.819Z,12.70
2023-02-11T19:56:34.114Z,11.83
2023-02-11T19:59:02.891Z,38.80
2023-02-11T20:01:31.224Z,10.58
2023-02-11T20:03:59.699Z,8.70
2023-02-11T20:06:29.263Z,13.20
2023-02-11T20:08:58.998Z,11.08
2023-02-11T20:11:28.383Z,20.85
2023-02-11T20:13:57.827Z,12.55
2023-02-11T20:16:44.637Z,8.33
2023-02-11T20:18:56.932Z,10.80
2023-02-11T20:21:26.232Z,14.83
2023-02-11T20:23:54.589Z,20.92
2023-02-11T20:26:26.206Z,19.30
2023-02-11T20:28:54.969Z,37.73
2023-02-11T20:31:23.636Z,11.83
2023-02-11T20:33:51.977Z,12.98
2023-02-11T20:36:21.513Z,30.15
2023-02-11T20:38:49.859Z,13.18
2023-02-11T20:41:19.122Z,17.65
2023-02-11T20:43:48.675Z,14.23
2023-02-11T20:46:17.380Z,13.68
2023-02-11T20:48:45.710Z,12.43
2023-02-11T20:51:14.888Z,10.60
2023-02-11T20:53:45.466Z,14.03
2023-02-11T20:56:13.774Z,16.73
2023-02-11T20:58:41.988Z,12.43
2023-02-11T21:01:11.050Z,16.07
2023-02-11T21:03:39.309Z,14.85
2023-02-11T21:06:08.036Z,13.68
2023-02-11T21:08:36.271Z,10.45
2023-02-11T21:11:06.280Z,11.10
2023-02-11T21:13:34.635Z,14.83
2023-02-11T21:16:03.008Z,16.02
2023-02-11T21:18:31.434Z,16.55
2023-02-11T21:20:59.746Z,16.20
2023-02-11T21:23:29.062Z,21.85
2023-02-11T21:25:57.610Z,12.65
2023-02-11T21:28:28.844Z,14.25
2023-02-11T21:30:57.394Z,16.67
2023-02-11T21:33:26.261Z,13.18
2023-02-11T21:35:59.303Z,25.97
2023-02-11T21:38:27.624Z,9.13
2023-02-11T21:40:55.884Z,11.40
2023-02-11T21:43:24.896Z,8.90
2023-02-11T21:45:53.480Z,9.98
2023-02-11T21:48:23.792Z,12.13
2023-02-11T21:50:52.089Z,10.05
2023-02-11T21:53:20.430Z,8.45
2023-02-11T21:55:50.407Z,5.62
2023-02-11T21:58:18.679Z,5.50
2023-02-11T22:00:47.009Z,9.78
2023-02-11T22:03:15.371Z,6.62
2023-02-11T22:05:43.636Z,7.60
2023-02-11T22:08:12.508Z,3.90
2023-02-11T22:10:40.909Z,5.08
2023-02-11T22:13:09.226Z,4.37
2023-02-11T22:15:37.438Z,4.33
2023-02-11T22:18:05.891Z,4.60
2023-02-11T22:20:34.225Z,6.15
2023-02-11T22:23:02.565Z,8.80
2023-02-11T22:25:30.780Z,7.17
2023-02-11T22:27:59.178Z,13.00
2023-02-11T22:30:27.428Z,9.30
2023-02-11T22:32:55.821Z,12.35
2023-02-11T22:35:24.103Z,10.28
2023-02-11T22:37:52.390Z,7.87
2023-02-11T22:40:20.661Z,15.68
2023-02-11T22:42:48.949Z,17.98
2023-02-11T22:45:17.334Z,19.52
2023-02-11T22:47:45.616Z,11.60
2023-02-11T22:50:13.922Z,12.18
2023-02-11T22:52:42.219Z,10.03
2023-02-11T22:55:10.707Z,8.80
2023-02-11T22:57:39.042Z,6.80
2023-02-11T23:00:09.272Z,7.30
2023-02-11T23:02:37.611Z,12.33
2023-02-11T23:05:06.071Z,6.47
2023-02-11T23:07:34.352Z,11.03
2023-02-11T23:10:02.569Z,7.53
2023-02-11T23:12:30.903Z,9.15
2023-02-11T23:14:59.132Z,6.62
2023-02-11T23:17:28.898Z,7.42
2023-02-11T23:19:57.132Z,4.83
2023-02-11T23:22:25.442Z,9.00
2023-02-11T23:24:53.681Z,9.00
2023-02-11T23:27:22.013Z,9.48
2023-02-11T23:29:50.248Z,9.70
2023-02-11T23:32:19.212Z,4.00
2023-02-11T23:34:47.537Z,7.55
2023-02-11T23:37:15.814Z,2.62
2023-02-11T23:39:44.084Z,4.00
2023-02-11T23:42:12.365Z,2.40
2023-02-11T23:44:40.628Z,4.87
2023-02-11T23:47:08.863Z,2.37
2023-02-11T23:49:37.108Z,3.72
2023-02-11T23:52:05.384Z,3.83
2023-02-11T23:54:33.660Z,3.67
2023-02-11T23:57:02.030Z,4.08
2023-02-11T23:59:30.240Z,4.67
